sensor_id;sensor_type;location;lat;lon;timestamp;pressure;altitude;pressure_sealevel;temperature;humidity
34931;BME280;21134;49.646;8.560;2023-03-14T00:00:58;98668.84;;;10.35;100.00
34931;BME280;21134;49.646;8.560;2023-03-14T00:03:25;98663.66;;;10.37;100.00
34931;BME280;21134;49.646;8.560;2023-03-14T00:05:51;98661.56;;;10.51;100.00
34931;BME280;21134;49.646;8.560;2023-03-14T00:08:18;98670.88;;;10.54;100.00
34931;BME280;21134;49.646;8.560;2023-03-14T00:10:47;98678.75;;;10.46;100.00
34931;BME280;21134;49.646;8.560;2023-03-14T00:13:14;98665.00;;;10.50;100.00
34931;BME280;21134;49.646;8.560;2023-03-14T00:15:40;98671.81;;;10.50;100.00
34931;BME280;21134;49.646;8.560;2023-03-14T00:18:07;98670.88;;;10.52;100.00
34931;BME280;21134;49.646;8.560;2023-03-14T00:20:33;98661.38;;;10.57;100.00
34931;BME280;21134;49.646;8.560;2023-03-14T00:23:00;98665.88;;;10.49;100.00
34931;BME280;21134;49.646;8.560;2023-03-14T00:25:27;98666.91;;;10.43;100.00
34931;BME280;21134;49.646;8.560;2023-03-14T00:27:55;98655.97;;;10.38;100.00
34931;BME280;21134;49.646;8.560;2023-03-14T00:30:21;98648.13;;;10.44;100.00
34931;BME280;21134;49.646;8.560;2023-03-14T00:32:48;98661.38;;;10.57;100.00
34931;BME280;21134;49.646;8.560;2023-03-14T00:35:15;98653.88;;;10.51;100.00
34931;BME280;21134;49.646;8.560;2023-03-14T00:37:42;98651.72;;;10.65;100.00
34931;BME280;21134;49.646;8.560;2023-03-14T00:40:09;98659.56;;;10.61;100.00
34931;BME280;21134;49.646;8.560;2023-03-14T00:42:36;98649.47;;;10.56;100.00
34931;BME280;21134;49.646;8.560;2023-03-14T00:45:04;98640.13;;;10.55;100.00
34931;BME280;21134;49.646;8.560;2023-03-14T00:47:32;98638.47;;;10.53;100.00
34931;BME280;21134;49.646;8.560;2023-03-14T00:49:59;98627.28;;;10.57;100.00
34931;BME280;21134;49.646;8.560;2023-03-14T00:52:26;98631.59;;;10.55;100.00
34931;BME280;21134;49.646;8.560;2023-03-14T00:54:52;98629.16;;;10.52;100.00
34931;BME280;21134;49.646;8.560;2023-03-14T00:57:19;98631.84;;;10.47;100.00
34931;BME280;21134;49.646;8.560;2023-03-14T00:59:45;98633.44;;;10.51;100.00
34931;BME280;21134;49.646;8.560;2023-03-14T01:02:13;98631.94;;;10.44;100.00
34931;BME280;21134;49.646;8.560;2023-03-14T01:04:39;98634.41;;;10.47;100.00
34931;BME280;21134;49.646;8.560;2023-03-14T01:07:08;98641.19;;;10.48;100.00
34931;BME280;21134;49.646;8.560;2023-03-14T01:09:34;98652.34;;;10.45;100.00
34931;BME280;21134;49.646;8.560;2023-03-14T01:12:01;98660.34;;;10.35;100.00
34931;BME280;21134;49.646;8.560;2023-03-14T01:14:27;98658.06;;;10.24;100.00
34931;BME280;21134;49.646;8.560;2023-03-14T01:16:54;98659.63;;;10.30;100.00
34931;BME280;21134;49.646;8.560;2023-03-14T01:19:27;98659.53;;;10.33;100.00
34931;BME280;21134;49.646;8.560;2023-03-14T01:21:54;98636.72;;;10.27;100.00
34931;BME280;21134;49.646;8.560;2023-03-14T01:24:20;98636.16;;;10.45;100.00
34931;BME280;21134;49.646;8.560;2023-03-14T01:26:47;98636.50;;;10.34;100.00
34931;BME280;21134;49.646;8.560;2023-03-14T01:29:13;98634.72;;;10.36;100.00
34931;BME280;21134;49.646;8.560;2023-03-14T01:31:40;98631.66;;;10.23;100.00
34931;BME280;21134;49.646;8.560;2023-03-14T01:34:06;98636.53;;;10.33;100.00
34931;BME280;21134;49.646;8.560;2023-03-14T01:36:34;98630.41;;;10.38;100.00
34931;BME280;21134;49.646;8.560;2023-03-14T01:39:00;98624.03;;;10.52;100.00
34931;BME280;21134;49.646;8.560;2023-03-14T01:41:27;98630.59;;;10.60;100.00
34931;BME280;21134;49.646;8.560;2023-03-14T01:43:53;98608.56;;;10.56;100.00
34931;BME280;21134;49.646;8.560;2023-03-14T01:46:34;98610.97;;;10.61;100.00
34931;BME280;21134;49.646;8.560;2023-03-14T01:49:06;98607.28;;;10.69;99.86
34931;BME280;21134;49.646;8.560;2023-03-14T01:51:42;98596.16;;;10.70;100.00
34931;BME280;21134;49.646;8.560;2023-03-14T01:54:13;98585.94;;;10.70;100.00
34931;BME280;21134;49.646;8.560;2023-03-14T01:56:42;98583.56;;;10.64;100.00
34931;BME280;21134;49.646;8.560;2023-03-14T01:59:10;98578.41;;;10.66;100.00
34931;BME280;21134;49.646;8.560;2023-03-14T02:01:38;98570.94;;;10.60;100.00
34931;BME280;21134;49.646;8.560;2023-03-14T02:04:08;98565.63;;;10.66;100.00
34931;BME280;21134;49.646;8.560;2023-03-14T02:06:41;98572.13;;;10.76;100.00
34931;BME280;21134;49.646;8.560;2023-03-14T02:09:08;98559.16;;;10.81;100.00
34931;BME280;21134;49.646;8.560;2023-03-14T02:11:35;98548.16;;;10.79;100.00
34931;BME280;21134;49.646;8.560;2023-03-14T02:14:03;98537.06;;;10.78;100.00
34931;BME280;21134;49.646;8.560;2023-03-14T02:16:30;98546.06;;;10.90;99.71
34931;BME280;21134;49.646;8.560;2023-03-14T02:18:57;98546.38;;;10.81;99.72
34931;BME280;21134;49.646;8.560;2023-03-14T02:21:29;98535.47;;;10.76;100.00
34931;BME280;21134;49.646;8.560;2023-03-14T02:24:07;98536.41;;;10.73;100.00
34931;BME280;21134;49.646;8.560;2023-03-14T02:26:38;98537.22;;;10.74;100.00
34931;BME280;21134;49.646;8.560;2023-03-14T02:29:08;98525.13;;;10.79;99.53
34931;BME280;21134;49.646;8.560;2023-03-14T02:31:35;98525.75;;;10.85;99.41
34931;BME280;21134;49.646;8.560;2023-03-14T02:34:02;98528.56;;;10.78;100.00
34931;BME280;21134;49.646;8.560;2023-03-14T02:36:30;98523.13;;;10.87;99.70
34931;BME280;21134;49.646;8.560;2023-03-14T02:39:02;98529.88;;;10.89;99.19
34931;BME280;21134;49.646;8.560;2023-03-14T02:41:31;98521.50;;;10.84;99.52
34931;BME280;21134;49.646;8.560;2023-03-14T02:43:57;98521.56;;;10.83;99.72
34931;BME280;21134;49.646;8.560;2023-03-14T02:46:25;98514.72;;;10.83;99.86
34931;BME280;21134;49.646;8.560;2023-03-14T02:48:55;98513.31;;;10.75;100.00
34931;BME280;21134;49.646;8.560;2023-03-14T02:51:26;98513.47;;;10.70;100.00
34931;BME280;21134;49.646;8.560;2023-03-14T02:53:54;98514.91;;;10.79;99.44
34931;BME280;21134;49.646;8.560;2023-03-14T02:56:20;98509.84;;;11.01;97.55
34931;BME280;21134;49.646;8.560;2023-03-14T02:58:47;98511.81;;;10.94;95.92
34931;BME280;21134;49.646;8.560;2023-03-14T03:01:13;98527.16;;;10.94;95.64
34931;BME280;21134;49.646;8.560;2023-03-14T03:03:41;98523.75;;;10.93;95.59
34931;BME280;21134;49.646;8.560;2023-03-14T03:06:08;98528.03;;;10.93;95.08
34931;BME280;21134;49.646;8.560;2023-03-14T03:08:34;98510.03;;;10.96;94.22
34931;BME280;21134;49.646;8.560;2023-03-14T03:11:01;98500.84;;;10.90;93.96
34931;BME280;21134;49.646;8.560;2023-03-14T03:13:27;98497.03;;;10.77;94.81
34931;BME280;21134;49.646;8.560;2023-03-14T03:15:54;98501.50;;;10.72;94.66
34931;BME280;21134;49.646;8.560;2023-03-14T03:18:20;98491.97;;;10.76;94.84
34931;BME280;21134;49.646;8.560;2023-03-14T03:20:48;98491.25;;;10.72;95.16
34931;BME280;21134;49.646;8.560;2023-03-14T03:23:15;98486.13;;;10.72;93.27
34931;BME280;21134;49.646;8.560;2023-03-14T03:25:42;98483.78;;;10.66;93.11
34931;BME280;21134;49.646;8.560;2023-03-14T03:28:08;98483.00;;;10.64;93.95
34931;BME280;21134;49.646;8.560;2023-03-14T03:30:37;98478.34;;;10.50;93.80
34931;BME280;21134;49.646;8.560;2023-03-14T03:33:04;98461.28;;;10.51;94.17
34931;BME280;21134;49.646;8.560;2023-03-14T03:35:30;98456.06;;;10.54;93.15
34931;BME280;21134;49.646;8.560;2023-03-14T03:37:58;98449.22;;;10.54;93.79
34931;BME280;21134;49.646;8.560;2023-03-14T03:40:25;98456.91;;;10.54;92.76
34931;BME280;21134;49.646;8.560;2023-03-14T03:42:51;98442.69;;;10.45;93.37
34931;BME280;21134;49.646;8.560;2023-03-14T03:45:18;98443.31;;;10.52;92.97
34931;BME280;21134;49.646;8.560;2023-03-14T03:47:44;98435.75;;;10.49;92.72
34931;BME280;21134;49.646;8.560;2023-03-14T03:50:10;98423.03;;;10.47;91.40
34931;BME280;21134;49.646;8.560;2023-03-14T03:52:37;98414.22;;;10.56;91.71
34931;BME280;21134;49.646;8.560;2023-03-14T03:55:05;98418.50;;;10.31;92.99
34931;BME280;21134;49.646;8.560;2023-03-14T03:57:32;98424.59;;;10.25;94.51
34931;BME280;21134;49.646;8.560;2023-03-14T03:59:58;98426.88;;;10.34;94.25
34931;BME280;21134;49.646;8.560;2023-03-14T04:02:25;98433.31;;;10.19;95.99
34931;BME280;21134;49.646;8.560;2023-03-14T04:04:51;98432.66;;;10.13;96.33
34931;BME280;21134;49.646;8.560;2023-03-14T04:07:18;98424.28;;;10.09;98.25
34931;BME280;21134;49.646;8.560;2023-03-14T04:09:45;98419.34;;;10.03;98.32
34931;BME280;21134;49.646;8.560;2023-03-14T04:12:12;98424.50;;;10.01;98.94
34931;BME280;21134;49.646;8.560;2023-03-14T04:14:39;98432.13;;;10.03;99.16
34931;BME280;21134;49.646;8.560;2023-03-14T04:17:06;98438.31;;;9.96;100.00
34931;BME280;21134;49.646;8.560;2023-03-14T04:19:33;98426.94;;;10.05;100.00
34931;BME280;21134;49.646;8.560;2023-03-14T04:21:59;98426.81;;;10.09;100.00
34931;BME280;21134;49.646;8.560;2023-03-14T04:24:26;98424.47;;;10.03;100.00
34931;BME280;21134;49.646;8.560;2023-03-14T04:26:52;98427.13;;;10.00;100.00
34931;BME280;21134;49.646;8.560;2023-03-14T04:29:20;98426.28;;;9.99;100.00
34931;BME280;21134;49.646;8.560;2023-03-14T04:31:47;98425.50;;;9.97;100.00
34931;BME280;21134;49.646;8.560;2023-03-14T04:34:13;98421.50;;;10.15;100.00
34931;BME280;21134;49.646;8.560;2023-03-14T04:36:39;98420.88;;;10.09;100.00
34931;BME280;21134;49.646;8.560;2023-03-14T04:39:06;98416.53;;;10.11;100.00
34931;BME280;21134;49.646;8.560;2023-03-14T04:41:33;98418.16;;;10.13;100.00
34931;BME280;21134;49.646;8.560;2023-03-14T04:43:59;98417.16;;;10.17;100.00
34931;BME280;21134;49.646;8.560;2023-03-14T04:46:27;98418.69;;;10.23;100.00
34931;BME280;21134;49.646;8.560;2023-03-14T04:48:53;98426.81;;;10.09;100.00
34931;BME280;21134;49.646;8.560;2023-03-14T04:51:21;98419.88;;;10.13;100.00
34931;BME280;21134;49.646;8.560;2023-03-14T04:53:52;98417.97;;;10.19;100.00
34931;BME280;21134;49.646;8.560;2023-03-14T04:56:19;98415.59;;;10.13;100.00
34931;BME280;21134;49.646;8.560;2023-03-14T04:58:45;98396.78;;;10.16;100.00
34931;BME280;21134;49.646;8.560;2023-03-14T05:01:12;98386.22;;;10.27;100.00
34931;BME280;21134;49.646;8.560;2023-03-14T05:03:40;98392.69;;;10.12;100.00
34931;BME280;21134;49.646;8.560;2023-03-14T05:06:07;98394.38;;;10.11;100.00
34931;BME280;21134;49.646;8.560;2023-03-14T05:08:33;98396.06;;;10.12;100.00
34931;BME280;21134;49.646;8.560;2023-03-14T05:11:00;98385.38;;;10.28;99.03
34931;BME280;21134;49.646;8.560;2023-03-14T05:13:26;98386.38;;;10.22;98.93
34931;BME280;21134;49.646;8.560;2023-03-14T05:15:52;98390.84;;;10.15;99.46
34931;BME280;21134;49.646;8.560;2023-03-14T05:18:20;98383.56;;;10.30;97.80
34931;BME280;21134;49.646;8.560;2023-03-14T05:20:50;98388.19;;;10.18;98.57
34931;BME280;21134;49.646;8.560;2023-03-14T05:23:16;98398.66;;;10.37;96.47
34931;BME280;21134;49.646;8.560;2023-03-14T05:25:43;98381.41;;;10.44;95.33
34931;BME280;21134;49.646;8.560;2023-03-14T05:28:09;98384.00;;;10.42;94.86
34931;BME280;21134;49.646;8.560;2023-03-14T05:30:36;98388.28;;;10.42;96.27
34931;BME280;21134;49.646;8.560;2023-03-14T05:33:02;98375.06;;;10.29;96.20
34931;BME280;21134;49.646;8.560;2023-03-14T05:35:29;98386.00;;;10.34;95.25
34931;BME280;21134;49.646;8.560;2023-03-14T05:37:57;98385.44;;;10.24;95.93
34931;BME280;21134;49.646;8.560;2023-03-14T05:40:23;98377.63;;;10.29;94.95
34931;BME280;21134;49.646;8.560;2023-03-14T05:42:50;98376.31;;;10.42;94.45
34931;BME280;21134;49.646;8.560;2023-03-14T05:45:17;98386.38;;;10.22;95.08
34931;BME280;21134;49.646;8.560;2023-03-14T05:47:44;98371.38;;;10.38;93.96
34931;BME280;21134;49.646;8.560;2023-03-14T05:50:10;98361.19;;;10.36;94.57
34931;BME280;21134;49.646;8.560;2023-03-14T05:52:37;98373.44;;;10.52;91.99
34931;BME280;21134;49.646;8.560;2023-03-14T05:55:06;98370.16;;;10.48;92.10
34931;BME280;21134;49.646;8.560;2023-03-14T05:57:32;98372.91;;;10.43;93.21
34931;BME280;21134;49.646;8.560;2023-03-14T05:59:59;98373.16;;;10.36;92.85
34931;BME280;21134;49.646;8.560;2023-03-14T06:02:25;98365.13;;;10.46;91.87
34931;BME280;21134;49.646;8.560;2023-03-14T06:04:52;98370.28;;;10.45;91.61
34931;BME280;21134;49.646;8.560;2023-03-14T06:07:18;98366.06;;;10.44;90.84
34931;BME280;21134;49.646;8.560;2023-03-14T06:09:45;98370.63;;;10.59;90.04
34931;BME280;21134;49.646;8.560;2023-03-14T06:12:12;98364.84;;;10.54;89.55
34931;BME280;21134;49.646;8.560;2023-03-14T06:14:39;98364.00;;;10.54;89.65
34931;BME280;21134;49.646;8.560;2023-03-14T06:17:05;98368.63;;;10.44;89.61
34931;BME280;21134;49.646;8.560;2023-03-14T06:19:32;98361.28;;;10.58;88.23
34931;BME280;21134;49.646;8.560;2023-03-14T06:21:58;98362.19;;;10.57;87.12
34931;BME280;21134;49.646;8.560;2023-03-14T06:24:25;98363.63;;;10.64;87.00
34931;BME280;21134;49.646;8.560;2023-03-14T06:26:51;98373.06;;;10.62;88.07
34931;BME280;21134;49.646;8.560;2023-03-14T06:29:19;98372.91;;;10.67;86.95
34931;BME280;21134;49.646;8.560;2023-03-14T06:31:45;98373.97;;;10.61;87.05
34931;BME280;21134;49.646;8.560;2023-03-14T06:34:12;98368.19;;;10.80;86.67
34931;BME280;21134;49.646;8.560;2023-03-14T06:36:39;98378.72;;;10.72;85.92
34931;BME280;21134;49.646;8.560;2023-03-14T06:39:05;98377.72;;;10.76;87.40
34931;BME280;21134;49.646;8.560;2023-03-14T06:41:32;98367.72;;;10.68;87.92
34931;BME280;21134;49.646;8.560;2023-03-14T06:43:58;98379.91;;;10.62;89.34
34931;BME280;21134;49.646;8.560;2023-03-14T06:46:26;98372.31;;;10.60;89.62
34931;BME280;21134;49.646;8.560;2023-03-14T06:48:53;98365.56;;;10.58;89.60
34931;BME280;21134;49.646;8.560;2023-03-14T06:51:19;98364.38;;;10.43;91.23
34931;BME280;21134;49.646;8.560;2023-03-14T06:53:46;98364.84;;;10.54;89.99
34931;BME280;21134;49.646;8.560;2023-03-14T06:56:12;98367.69;;;10.46;89.82
34931;BME280;21134;49.646;8.560;2023-03-14T06:58:39;98364.00;;;10.54;90.02
34931;BME280;21134;49.646;8.560;2023-03-14T07:01:10;98364.94;;;10.51;90.45
34931;BME280;21134;49.646;8.560;2023-03-14T07:03:44;98373.53;;;10.50;89.80
34931;BME280;21134;49.646;8.560;2023-03-14T07:06:10;98364.13;;;10.51;89.58
34931;BME280;21134;49.646;8.560;2023-03-14T07:08:37;98354.66;;;10.53;90.23
34931;BME280;21134;49.646;8.560;2023-03-14T07:11:05;98351.53;;;10.69;87.10
34931;BME280;21134;49.646;8.560;2023-03-14T07:13:31;98360.84;;;10.70;87.79
34931;BME280;21134;49.646;8.560;2023-03-14T07:15:58;98364.31;;;10.69;87.83
34931;BME280;21134;49.646;8.560;2023-03-14T07:18:24;98347.78;;;10.78;87.15
34931;BME280;21134;49.646;8.560;2023-03-14T07:20:52;98343.16;;;10.88;86.84
34931;BME280;21134;49.646;8.560;2023-03-14T07:23:18;98337.28;;;10.86;87.01
34931;BME280;21134;49.646;8.560;2023-03-14T07:25:45;98340.31;;;10.96;84.99
34931;BME280;21134;49.646;8.560;2023-03-14T07:28:12;98347.00;;;11.00;86.07
34931;BME280;21134;49.646;8.560;2023-03-14T07:30:38;98340.63;;;11.10;84.54
34931;BME280;21134;49.646;8.560;2023-03-14T07:33:04;98342.13;;;11.15;83.55
34931;BME280;21134;49.646;8.560;2023-03-14T07:35:31;98338.44;;;11.23;82.56
34931;BME280;21134;49.646;8.560;2023-03-14T07:37:59;98348.66;;;11.23;83.92
34931;BME280;21134;49.646;8.560;2023-03-14T07:40:25;98346.59;;;11.32;82.16
34931;BME280;21134;49.646;8.560;2023-03-14T07:42:52;98360.38;;;11.30;82.11
34931;BME280;21134;49.646;8.560;2023-03-14T07:45:20;98364.28;;;11.38;80.61
34931;BME280;21134;49.646;8.560;2023-03-14T07:47:47;98366.44;;;11.49;80.52
34931;BME280;21134;49.646;8.560;2023-03-14T07:50:13;98371.38;;;11.54;80.17
34931;BME280;21134;49.646;8.560;2023-03-14T07:52:39;98376.22;;;11.61;80.02
34931;BME280;21134;49.646;8.560;2023-03-14T07:55:08;98370.22;;;11.61;79.69
34931;BME280;21134;49.646;8.560;2023-03-14T07:57:34;98377.56;;;11.70;80.95
34931;BME280;21134;49.646;8.560;2023-03-14T08:00:01;98370.59;;;11.74;79.63
34931;BME280;21134;49.646;8.560;2023-03-14T08:02:29;98372.06;;;11.79;79.48
34931;BME280;21134;49.646;8.560;2023-03-14T08:04:55;98375.31;;;11.84;78.93
34931;BME280;21134;49.646;8.560;2023-03-14T08:07:22;98376.66;;;11.93;78.47
34931;BME280;21134;49.646;8.560;2023-03-14T08:09:48;98381.88;;;11.92;79.61
34931;BME280;21134;49.646;8.560;2023-03-14T08:12:16;98380.91;;;11.94;79.67
34931;BME280;21134;49.646;8.560;2023-03-14T08:14:42;98390.72;;;12.05;78.25
34931;BME280;21134;49.646;8.560;2023-03-14T08:17:09;98390.59;;;12.08;78.97
34931;BME280;21134;49.646;8.560;2023-03-14T08:19:35;98400.03;;;12.07;78.55
34931;BME280;21134;49.646;8.560;2023-03-14T08:22:02;98394.09;;;12.05;78.97
34931;BME280;21134;49.646;8.560;2023-03-14T08:24:28;98408.53;;;12.08;78.51
34931;BME280;21134;49.646;8.560;2023-03-14T08:26:55;98415.59;;;12.03;79.47
34931;BME280;21134;49.646;8.560;2023-03-14T08:29:23;98400.81;;;12.09;78.98
34931;BME280;21134;49.646;8.560;2023-03-14T08:31:49;98402.69;;;12.04;78.46
34931;BME280;21134;49.646;8.560;2023-03-14T08:34:16;98410.81;;;12.16;77.74
34931;BME280;21134;49.646;8.560;2023-03-14T08:36:42;98406.56;;;12.15;77.88
34931;BME280;21134;49.646;8.560;2023-03-14T08:39:09;98406.50;;;12.16;76.82
34931;BME280;21134;49.646;8.560;2023-03-14T08:41:35;98401.56;;;12.12;77.47
34931;BME280;21134;49.646;8.560;2023-03-14T08:44:05;98403.03;;;12.17;77.30
34931;BME280;21134;49.646;8.560;2023-03-14T08:46:33;98408.69;;;12.25;76.48
34931;BME280;21134;49.646;8.560;2023-03-14T08:49:00;98403.13;;;12.16;75.30
34931;BME280;21134;49.646;8.560;2023-03-14T08:51:27;98408.63;;;12.06;77.91
34931;BME280;21134;49.646;8.560;2023-03-14T08:53:53;98402.38;;;12.12;78.53
34931;BME280;21134;49.646;8.560;2023-03-14T08:56:20;98391.44;;;12.29;78.10
34931;BME280;21134;49.646;8.560;2023-03-14T08:58:46;98393.56;;;12.40;77.46
34931;BME280;21134;49.646;8.560;2023-03-14T09:01:13;98395.75;;;12.28;77.55
34931;BME280;21134;49.646;8.560;2023-03-14T09:03:41;98399.16;;;12.29;77.72
34931;BME280;21134;49.646;8.560;2023-03-14T09:06:09;98393.75;;;12.35;77.40
34931;BME280;21134;49.646;8.560;2023-03-14T09:08:36;98396.38;;;12.33;77.12
34931;BME280;21134;49.646;8.560;2023-03-14T09:11:03;98392.56;;;12.22;77.30
34931;BME280;21134;49.646;8.560;2023-03-14T09:13:29;98392.91;;;12.34;78.23
34931;BME280;21134;49.646;8.560;2023-03-14T09:15:56;98388.75;;;12.32;77.22
34931;BME280;21134;49.646;8.560;2023-03-14T09:18:23;98394.38;;;12.40;77.40
34931;BME280;21134;49.646;8.560;2023-03-14T09:20:50;98391.00;;;12.40;78.22
34931;BME280;21134;49.646;8.560;2023-03-14T09:23:17;98383.59;;;12.52;77.71
34931;BME280;21134;49.646;8.560;2023-03-14T09:25:43;98385.53;;;12.47;79.10
34931;BME280;21134;49.646;8.560;2023-03-14T09:28:10;98381.03;;;12.52;76.75
34931;BME280;21134;49.646;8.560;2023-03-14T09:30:37;98378.13;;;12.60;77.46
34931;BME280;21134;49.646;8.560;2023-03-14T09:33:03;98378.25;;;12.57;76.18
34931;BME280;21134;49.646;8.560;2023-03-14T09:35:30;98379.94;;;12.58;77.74
34931;BME280;21134;49.646;8.560;2023-03-14T09:37:58;98381.00;;;12.73;77.43
34931;BME280;21134;49.646;8.560;2023-03-14T09:40:27;98376.84;;;12.70;77.38
34931;BME280;21134;49.646;8.560;2023-03-14T09:42:57;98381.13;;;12.70;77.59
34931;BME280;21134;49.646;8.560;2023-03-14T09:45:26;98382.88;;;12.69;78.05
34931;BME280;21134;49.646;8.560;2023-03-14T09:47:55;98389.56;;;12.53;77.23
34931;BME280;21134;49.646;8.560;2023-03-14T09:50:24;98391.69;;;12.64;78.09
34931;BME280;21134;49.646;8.560;2023-03-14T09:52:55;98394.25;;;12.64;77.14
34931;BME280;21134;49.646;8.560;2023-03-14T09:55:24;98398.53;;;12.63;78.65
34931;BME280;21134;49.646;8.560;2023-03-14T09:57:54;98391.69;;;12.64;79.28
34931;BME280;21134;49.646;8.560;2023-03-14T10:00:23;98407.09;;;12.64;79.45
34931;BME280;21134;49.646;8.560;2023-03-14T10:02:54;98414.13;;;12.59;79.75
34931;BME280;21134;49.646;8.560;2023-03-14T10:05:23;98408.31;;;12.55;80.12
34931;BME280;21134;49.646;8.560;2023-03-14T10:07:50;98401.31;;;12.59;80.43
34931;BME280;21134;49.646;8.560;2023-03-14T10:10:19;98406.66;;;12.54;79.92
34931;BME280;21134;49.646;8.560;2023-03-14T10:12:54;98403.53;;;12.66;80.59
34931;BME280;21134;49.646;8.560;2023-03-14T10:15:24;98391.69;;;12.64;79.96
34931;BME280;21134;49.646;8.560;2023-03-14T10:17:51;98397.69;;;12.63;80.88
34931;BME280;21134;49.646;8.560;2023-03-14T10:20:32;98391.13;;;12.76;79.85
34931;BME280;21134;49.646;8.560;2023-03-14T10:23:01;98395.66;;;12.71;79.80
34931;BME280;21134;49.646;8.560;2023-03-14T10:25:29;98399.09;;;12.70;80.79
34931;BME280;21134;49.646;8.560;2023-03-14T10:27:58;98395.16;;;12.82;79.99
34931;BME280;21134;49.646;8.560;2023-03-14T10:30:33;98405.66;;;12.77;81.35
34931;BME280;21134;49.646;8.560;2023-03-14T10:33:08;98397.94;;;12.77;80.36
34931;BME280;21134;49.646;8.560;2023-03-14T10:35:35;98392.25;;;12.70;80.48
34931;BME280;21134;49.646;8.560;2023-03-14T10:38:03;98389.66;;;12.51;81.44
34931;BME280;21134;49.646;8.560;2023-03-14T10:40:31;98392.91;;;12.55;81.01
34931;BME280;21134;49.646;8.560;2023-03-14T10:43:04;98392.13;;;12.53;82.58
34931;BME280;21134;49.646;8.560;2023-03-14T10:45:33;98393.88;;;12.52;82.30
34931;BME280;21134;49.646;8.560;2023-03-14T10:48:16;98396.91;;;12.42;82.72
34931;BME280;21134;49.646;8.560;2023-03-14T10:50:48;98402.97;;;12.39;83.75
34931;BME280;21134;49.646;8.560;2023-03-14T10:53:17;98391.13;;;12.37;84.34
34931;BME280;21134;49.646;8.560;2023-03-14T10:55:44;98402.78;;;12.23;86.44
34931;BME280;21134;49.646;8.560;2023-03-14T10:58:24;98398.81;;;12.16;86.58
34931;BME280;21134;49.646;8.560;2023-03-14T11:01:12;98400.72;;;12.11;87.22
34931;BME280;21134;49.646;8.560;2023-03-14T11:03:49;98406.28;;;12.00;87.77
34931;BME280;21134;49.646;8.560;2023-03-14T11:06:20;98405.47;;;12.00;87.50
34931;BME280;21134;49.646;8.560;2023-03-14T11:08:53;98407.25;;;11.98;87.97
34931;BME280;21134;49.646;8.560;2023-03-14T11:11:25;98418.41;;;11.97;88.78
34931;BME280;21134;49.646;8.560;2023-03-14T11:14:02;98415.38;;;11.87;89.85
34931;BME280;21134;49.646;8.560;2023-03-14T11:16:34;98420.59;;;11.84;89.10
34931;BME280;21134;49.646;8.560;2023-03-14T11:19:22;98426.06;;;11.75;90.49
34931;BME280;21134;49.646;8.560;2023-03-14T11:21:58;98429.38;;;11.77;89.73
34931;BME280;21134;49.646;8.560;2023-03-14T11:24:36;98430.66;;;11.67;90.44
34931;BME280;21134;49.646;8.560;2023-03-14T11:27:11;98438.16;;;11.71;91.40
34931;BME280;21134;49.646;8.560;2023-03-14T11:29:48;98435.66;;;11.70;90.59
34931;BME280;21134;49.646;8.560;2023-03-14T11:32:36;98440.06;;;11.66;92.24
34931;BME280;21134;49.646;8.560;2023-03-14T11:35:16;98443.69;;;11.60;92.63
34931;BME280;21134;49.646;8.560;2023-03-14T11:37:46;98444.59;;;11.59;92.82
34931;BME280;21134;49.646;8.560;2023-03-14T11:40:18;98441.31;;;11.56;92.75
34931;BME280;21134;49.646;8.560;2023-03-14T11:42:49;98447.59;;;11.47;93.58
34931;BME280;21134;49.646;8.560;2023-03-14T11:45:25;98456.59;;;11.57;92.96
34931;BME280;21134;49.646;8.560;2023-03-14T11:47:59;98464.59;;;11.50;93.76
34931;BME280;21134;49.646;8.560;2023-03-14T11:50:28;98472.28;;;11.50;94.23
34931;BME280;21134;49.646;8.560;2023-03-14T11:52:58;98486.81;;;11.49;94.85
34931;BME280;21134;49.646;8.560;2023-03-14T11:55:31;98488.59;;;11.47;94.33
34931;BME280;21134;49.646;8.560;2023-03-14T11:58:02;98498.16;;;11.42;92.37
34931;BME280;21134;49.646;8.560;2023-03-14T12:00:31;98514.16;;;11.49;91.14
34931;BME280;21134;49.646;8.560;2023-03-14T12:03:04;98523.72;;;11.44;89.29
34931;BME280;21134;49.646;8.560;2023-03-14T12:05:55;98538.50;;;11.35;89.78
34931;BME280;21134;49.646;8.560;2023-03-14T12:08:38;98549.88;;;11.52;87.30
34931;BME280;21134;49.646;8.560;2023-03-14T12:11:10;98550.13;;;11.46;84.95
34931;BME280;21134;49.646;8.560;2023-03-14T12:13:39;98577.72;;;11.37;85.01
34931;BME280;21134;49.646;8.560;2023-03-14T12:16:23;98575.22;;;11.36;85.24
34931;BME280;21134;49.646;8.560;2023-03-14T12:18:52;98586.44;;;11.32;85.41
34931;BME280;21134;49.646;8.560;2023-03-14T12:21:19;98615.75;;;11.23;84.49
34931;BME280;21134;49.646;8.560;2023-03-14T12:23:49;98614.25;;;11.17;82.93
34931;BME280;21134;49.646;8.560;2023-03-14T12:26:18;98645.72;;;11.20;78.09
34931;BME280;21134;49.646;8.560;2023-03-14T12:28:50;98666.41;;;11.13;77.43
34931;BME280;21134;49.646;8.560;2023-03-14T12:31:37;98675.97;;;11.08;75.92
34931;BME280;21134;49.646;8.560;2023-03-14T12:34:30;98682.91;;;11.05;70.66
34931;BME280;21134;49.646;8.560;2023-03-14T12:37:17;98695.84;;;11.00;70.59
34931;BME280;21134;49.646;8.560;2023-03-14T12:39:56;98702.28;;;10.85;71.83
34931;BME280;21134;49.646;8.560;2023-03-14T12:42:51;98700.22;;;10.97;71.19
34931;BME280;21134;49.646;8.560;2023-03-14T12:45:25;98703.19;;;11.11;70.23
34931;BME280;21134;49.646;8.560;2023-03-14T12:47:56;98715.53;;;11.25;70.17
34931;BME280;21134;49.646;8.560;2023-03-14T12:50:34;98716.56;;;11.46;69.08
34931;BME280;21134;49.646;8.560;2023-03-14T12:53:33;98729.81;;;11.58;67.57
34931;BME280;21134;49.646;8.560;2023-03-14T12:56:16;98742.38;;;11.64;66.07
34931;BME280;21134;49.646;8.560;2023-03-14T12:58:54;98750.34;;;11.57;67.43
34931;BME280;21134;49.646;8.560;2023-03-14T13:01:25;98761.91;;;11.42;70.74
34931;BME280;21134;49.646;8.560;2023-03-14T13:03:54;98756.03;;;11.40;69.93
34931;BME280;21134;49.646;8.560;2023-03-14T13:06:49;98764.53;;;11.14;71.21